sensor_id;sensor_type;location;lat;lon;timestamp;P1;durP1;ratioP1;P2;durP2;ratioP2
20844;SDS011;10583;49.084;8.646;2023-06-05T00:00:50;2.10;;;2.10;;
20844;SDS011;10583;49.084;8.646;2023-06-05T00:03:20;2.30;;;2.30;;
20844;SDS011;10583;49.084;8.646;2023-06-05T00:05:49;2.30;;;2.30;;
20844;SDS011;10583;49.084;8.646;2023-06-05T00:08:16;2.50;;;2.50;;
20844;SDS011;10583;49.084;8.646;2023-06-05T00:10:43;2.40;;;2.40;;
20844;SDS011;10583;49.084;8.646;2023-06-05T00:13:10;2.30;;;2.30;;
20844;SDS011;10583;49.084;8.646;2023-06-05T00:15:37;2.40;;;2.40;;
20844;SDS011;10583;49.084;8.646;2023-06-05T00:18:04;2.40;;;2.40;;
20844;SDS011;10583;49.084;8.646;2023-06-05T00:20:33;2.37;;;2.37;;
20844;SDS011;10583;49.084;8.646;2023-06-05T00:22:59;2.10;;;2.10;;
20844;SDS011;10583;49.084;8.646;2023-06-05T00:25:26;2.07;;;2.07;;
20844;SDS011;10583;49.084;8.646;2023-06-05T00:27:53;2.60;;;2.60;;
20844;SDS011;10583;49.084;8.646;2023-06-05T00:30:21;2.00;;;2.00;;
20844;SDS011;10583;49.084;8.646;2023-06-05T00:32:47;2.10;;;2.10;;
20844;SDS011;10583;49.084;8.646;2023-06-05T00:35:14;2.30;;;2.30;;
20844;SDS011;10583;49.084;8.646;2023-06-05T00:37:43;2.67;;;2.67;;
20844;SDS011;10583;49.084;8.646;2023-06-05T00:40:12;2.63;;;2.63;;
20844;SDS011;10583;49.084;8.646;2023-06-05T00:42:39;2.30;;;2.30;;
20844;SDS011;10583;49.084;8.646;2023-06-05T00:45:06;2.20;;;2.20;;
20844;SDS011;10583;49.084;8.646;2023-06-05T00:47:34;2.47;;;2.47;;
20844;SDS011;10583;49.084;8.646;2023-06-05T00:50:01;2.20;;;2.20;;
20844;SDS011;10583;49.084;8.646;2023-06-05T00:52:29;2.20;;;2.20;;
20844;SDS011;10583;49.084;8.646;2023-06-05T00:54:58;2.50;;;2.50;;
20844;SDS011;10583;49.084;8.646;2023-06-05T00:57:26;2.33;;;2.33;;
20844;SDS011;10583;49.084;8.646;2023-06-05T00:59:53;2.47;;;2.47;;
20844;SDS011;10583;49.084;8.646;2023-06-05T01:02:20;2.30;;;2.30;;
20844;SDS011;10583;49.084;8.646;2023-06-05T01:04:47;2.53;;;2.53;;
20844;SDS011;10583;49.084;8.646;2023-06-05T01:07:15;2.37;;;2.37;;
20844;SDS011;10583;49.084;8.646;2023-06-05T01:09:44;2.67;;;2.67;;
20844;SDS011;10583;49.084;8.646;2023-06-05T01:12:14;2.20;;;2.20;;
20844;SDS011;10583;49.084;8.646;2023-06-05T01:14:48;2.47;;;2.47;;
20844;SDS011;10583;49.084;8.646;2023-06-05T01:17:15;2.50;;;2.50;;
20844;SDS011;10583;49.084;8.646;2023-06-05T01:19:44;2.30;;;2.30;;
20844;SDS011;10583;49.084;8.646;2023-06-05T01:22:11;2.53;;;2.53;;
20844;SDS011;10583;49.084;8.646;2023-06-05T01:24:40;2.60;;;2.60;;
20844;SDS011;10583;49.084;8.646;2023-06-05T01:27:10;2.30;;;2.30;;
20844;SDS011;10583;49.084;8.646;2023-06-05T01:29:42;2.40;;;2.40;;
20844;SDS011;10583;49.084;8.646;2023-06-05T01:32:19;2.10;;;2.10;;
20844;SDS011;10583;49.084;8.646;2023-06-05T01:34:50;2.30;;;2.30;;
20844;SDS011;10583;49.084;8.646;2023-06-05T01:37:20;2.30;;;2.30;;
20844;SDS011;10583;49.084;8.646;2023-06-05T01:39:51;2.40;;;2.40;;
20844;SDS011;10583;49.084;8.646;2023-06-05T01:42:22;2.43;;;2.43;;
20844;SDS011;10583;49.084;8.646;2023-06-05T01:44:50;2.37;;;2.37;;
20844;SDS011;10583;49.084;8.646;2023-06-05T01:47:18;2.60;;;2.60;;
20844;SDS011;10583;49.084;8.646;2023-06-05T01:49:46;2.30;;;2.30;;
20844;SDS011;10583;49.084;8.646;2023-06-05T01:52:13;2.50;;;2.50;;
20844;SDS011;10583;49.084;8.646;2023-06-05T01:54:40;2.40;;;2.40;;
20844;SDS011;10583;49.084;8.646;2023-06-05T01:57:09;2.30;;;2.30;;
20844;SDS011;10583;49.084;8.646;2023-06-05T01:59:36;2.27;;;2.27;;
20844;SDS011;10583;49.084;8.646;2023-06-05T02:02:03;2.23;;;2.23;;
20844;SDS011;10583;49.084;8.646;2023-06-05T02:04:30;2.50;;;2.50;;
20844;SDS011;10583;49.084;8.646;2023-06-05T02:06:57;2.20;;;2.20;;
20844;SDS011;10583;49.084;8.646;2023-06-05T02:09:28;2.30;;;2.30;;
20844;SDS011;10583;49.084;8.646;2023-06-05T02:11:57;2.27;;;2.27;;
20844;SDS011;10583;49.084;8.646;2023-06-05T02:14:30;2.03;;;2.03;;
20844;SDS011;10583;49.084;8.646;2023-06-05T02:17:00;2.40;;;2.40;;
20844;SDS011;10583;49.084;8.646;2023-06-05T02:19:29;2.20;;;2.20;;
20844;SDS011;10583;49.084;8.646;2023-06-05T02:21:56;2.53;;;2.53;;
20844;SDS011;10583;49.084;8.646;2023-06-05T02:24:23;2.27;;;2.27;;
20844;SDS011;10583;49.084;8.646;2023-06-05T02:26:51;2.80;;;2.80;;
20844;SDS011;10583;49.084;8.646;2023-06-05T02:29:18;2.30;;;2.30;;
20844;SDS011;10583;49.084;8.646;2023-06-05T02:31:47;2.63;;;2.63;;
20844;SDS011;10583;49.084;8.646;2023-06-05T02:34:14;2.47;;;2.47;;
20844;SDS011;10583;49.084;8.646;2023-06-05T02:36:41;2.10;;;2.10;;
20844;SDS011;10583;49.084;8.646;2023-06-05T02:39:10;2.17;;;2.17;;
20844;SDS011;10583;49.084;8.646;2023-06-05T02:41:37;2.17;;;2.17;;
20844;SDS011;10583;49.084;8.646;2023-06-05T02:44:04;2.73;;;2.73;;
20844;SDS011;10583;49.084;8.646;2023-06-05T02:46:31;2.50;;;2.50;;
20844;SDS011;10583;49.084;8.646;2023-06-05T02:49:00;2.23;;;2.23;;
20844;SDS011;10583;49.084;8.646;2023-06-05T02:51:26;2.03;;;2.03;;
20844;SDS011;10583;49.084;8.646;2023-06-05T02:53:53;2.30;;;2.30;;
20844;SDS011;10583;49.084;8.646;2023-06-05T02:56:20;2.17;;;2.17;;
20844;SDS011;10583;49.084;8.646;2023-06-05T02:58:51;2.30;;;2.30;;
20844;SDS011;10583;49.084;8.646;2023-06-05T03:01:18;2.27;;;2.27;;
20844;SDS011;10583;49.084;8.646;2023-06-05T03:03:47;2.33;;;2.33;;
20844;SDS011;10583;49.084;8.646;2023-06-05T03:06:18;2.20;;;2.20;;
20844;SDS011;10583;49.084;8.646;2023-06-05T03:08:45;2.20;;;2.20;;
20844;SDS011;10583;49.084;8.646;2023-06-05T03:11:12;2.20;;;2.20;;
20844;SDS011;10583;49.084;8.646;2023-06-05T03:13:39;2.60;;;2.60;;
20844;SDS011;10583;49.084;8.646;2023-06-05T03:16:06;2.50;;;2.50;;
20844;SDS011;10583;49.084;8.646;2023-06-05T03:18:34;2.60;;;2.60;;
20844;SDS011;10583;49.084;8.646;2023-06-05T03:21:01;2.40;;;2.40;;
20844;SDS011;10583;49.084;8.646;2023-06-05T03:23:29;1.80;;;1.80;;
20844;SDS011;10583;49.084;8.646;2023-06-05T03:25:56;2.43;;;2.43;;
20844;SDS011;10583;49.084;8.646;2023-06-05T03:28:23;2.40;;;2.40;;
20844;SDS011;10583;49.084;8.646;2023-06-05T03:30:50;2.10;;;2.10;;
20844;SDS011;10583;49.084;8.646;2023-06-05T03:33:17;2.17;;;2.17;;
20844;SDS011;10583;49.084;8.646;2023-06-05T03:35:44;2.30;;;2.30;;
20844;SDS011;10583;49.084;8.646;2023-06-05T03:38:12;2.10;;;2.10;;
20844;SDS011;10583;49.084;8.646;2023-06-05T03:40:41;2.50;;;2.50;;
20844;SDS011;10583;49.084;8.646;2023-06-05T03:43:08;2.60;;;2.60;;
20844;SDS011;10583;49.084;8.646;2023-06-05T03:45:36;2.30;;;2.30;;
20844;SDS011;10583;49.084;8.646;2023-06-05T03:48:05;2.70;;;2.70;;
20844;SDS011;10583;49.084;8.646;2023-06-05T03:50:33;2.20;;;2.20;;
20844;SDS011;10583;49.084;8.646;2023-06-05T03:53:03;2.50;;;2.50;;
20844;SDS011;10583;49.084;8.646;2023-06-05T03:55:30;2.33;;;2.33;;
20844;SDS011;10583;49.084;8.646;2023-06-05T03:58:07;2.53;;;2.53;;
20844;SDS011;10583;49.084;8.646;2023-06-05T04:00:35;2.33;;;2.33;;
20844;SDS011;10583;49.084;8.646;2023-06-05T04:03:01;2.47;;;2.47;;
20844;SDS011;10583;49.084;8.646;2023-06-05T04:05:29;2.83;;;2.83;;
20844;SDS011;10583;49.084;8.646;2023-06-05T04:07:56;2.47;;;2.47;;
20844;SDS011;10583;49.084;8.646;2023-06-05T04:10:23;2.43;;;2.43;;
20844;SDS011;10583;49.084;8.646;2023-06-05T04:12:50;2.70;;;2.70;;
20844;SDS011;10583;49.084;8.646;2023-06-05T04:15:18;2.63;;;2.63;;
20844;SDS011;10583;49.084;8.646;2023-06-05T04:17:45;2.37;;;2.37;;
20844;SDS011;10583;49.084;8.646;2023-06-05T04:20:12;2.17;;;2.17;;
20844;SDS011;10583;49.084;8.646;2023-06-05T04:22:40;2.50;;;2.50;;
20844;SDS011;10583;49.084;8.646;2023-06-05T04:25:07;2.30;;;2.30;;
20844;SDS011;10583;49.084;8.646;2023-06-05T04:27:35;2.70;;;2.70;;
20844;SDS011;10583;49.084;8.646;2023-06-05T04:30:04;2.57;;;2.57;;
20844;SDS011;10583;49.084;8.646;2023-06-05T04:32:34;2.50;;;2.50;;
20844;SDS011;10583;49.084;8.646;2023-06-05T04:35:02;2.17;;;2.17;;
20844;SDS011;10583;49.084;8.646;2023-06-05T04:37:30;2.50;;;2.50;;
20844;SDS011;10583;49.084;8.646;2023-06-05T04:39:57;2.70;;;2.70;;
20844;SDS011;10583;49.084;8.646;2023-06-05T04:42:24;2.60;;;2.60;;
20844;SDS011;10583;49.084;8.646;2023-06-05T04:44:56;2.63;;;2.63;;
20844;SDS011;10583;49.084;8.646;2023-06-05T04:47:23;2.53;;;2.53;;
20844;SDS011;10583;49.084;8.646;2023-06-05T04:49:52;2.27;;;2.27;;
20844;SDS011;10583;49.084;8.646;2023-06-05T04:52:20;2.77;;;2.77;;
20844;SDS011;10583;49.084;8.646;2023-06-05T04:54:48;2.40;;;2.40;;
20844;SDS011;10583;49.084;8.646;2023-06-05T04:57:15;2.57;;;2.57;;
20844;SDS011;10583;49.084;8.646;2023-06-05T04:59:43;2.47;;;2.47;;
20844;SDS011;10583;49.084;8.646;2023-06-05T05:02:11;2.60;;;2.60;;
20844;SDS011;10583;49.084;8.646;2023-06-05T05:04:38;2.70;;;2.70;;
20844;SDS011;10583;49.084;8.646;2023-06-05T05:07:06;3.00;;;3.00;;
20844;SDS011;10583;49.084;8.646;2023-06-05T05:09:38;2.57;;;2.57;;
20844;SDS011;10583;49.084;8.646;2023-06-05T05:12:05;2.30;;;2.30;;
20844;SDS011;10583;49.084;8.646;2023-06-05T05:14:33;2.87;;;2.87;;
20844;SDS011;10583;49.084;8.646;2023-06-05T05:17:00;2.87;;;2.87;;
20844;SDS011;10583;49.084;8.646;2023-06-05T05:19:27;2.83;;;2.83;;
20844;SDS011;10583;49.084;8.646;2023-06-05T05:21:54;2.67;;;2.67;;
20844;SDS011;10583;49.084;8.646;2023-06-05T05:24:23;2.80;;;2.80;;
20844;SDS011;10583;49.084;8.646;2023-06-05T05:26:50;2.40;;;2.40;;
20844;SDS011;10583;49.084;8.646;2023-06-05T05:29:17;2.93;;;2.93;;
20844;SDS011;10583;49.084;8.646;2023-06-05T05:31:45;2.77;;;2.77;;
20844;SDS011;10583;49.084;8.646;2023-06-05T05:34:12;2.70;;;2.70;;
20844;SDS011;10583;49.084;8.646;2023-06-05T05:36:38;2.50;;;2.50;;
20844;SDS011;10583;49.084;8.646;2023-06-05T05:39:05;2.23;;;2.23;;
20844;SDS011;10583;49.084;8.646;2023-06-05T05:41:34;2.63;;;2.63;;
20844;SDS011;10583;49.084;8.646;2023-06-05T05:44:01;2.30;;;2.30;;
20844;SDS011;10583;49.084;8.646;2023-06-05T05:46:28;2.07;;;2.07;;
20844;SDS011;10583;49.084;8.646;2023-06-05T05:48:55;1.73;;;1.73;;
20844;SDS011;10583;49.084;8.646;2023-06-05T05:51:22;2.00;;;2.00;;
20844;SDS011;10583;49.084;8.646;2023-06-05T05:53:49;2.03;;;2.03;;
20844;SDS011;10583;49.084;8.646;2023-06-05T05:56:16;1.90;;;1.90;;
20844;SDS011;10583;49.084;8.646;2023-06-05T05:58:45;1.90;;;1.90;;
20844;SDS011;10583;49.084;8.646;2023-06-05T06:01:12;2.03;;;2.03;;
20844;SDS011;10583;49.084;8.646;2023-06-05T06:03:39;1.93;;;1.93;;
20844;SDS011;10583;49.084;8.646;2023-06-05T06:06:07;2.37;;;2.37;;
20844;SDS011;10583;49.084;8.646;2023-06-05T06:08:35;1.83;;;1.83;;
20844;SDS011;10583;49.084;8.646;2023-06-05T06:11:02;1.80;;;1.80;;
20844;SDS011;10583;49.084;8.646;2023-06-05T06:13:31;1.63;;;1.63;;
20844;SDS011;10583;49.084;8.646;2023-06-05T06:16:00;1.77;;;1.77;;
20844;SDS011;10583;49.084;8.646;2023-06-05T06:18:27;1.70;;;1.70;;
20844;SDS011;10583;49.084;8.646;2023-06-05T06:20:54;1.87;;;1.87;;
20844;SDS011;10583;49.084;8.646;2023-06-05T06:23:21;1.80;;;1.80;;
20844;SDS011;10583;49.084;8.646;2023-06-05T06:25:48;1.70;;;1.70;;
20844;SDS011;10583;49.084;8.646;2023-06-05T06:28:16;1.87;;;1.87;;
20844;SDS011;10583;49.084;8.646;2023-06-05T06:30:44;1.77;;;1.77;;
20844;SDS011;10583;49.084;8.646;2023-06-05T06:33:13;1.70;;;1.70;;
20844;SDS011;10583;49.084;8.646;2023-06-05T06:35:39;1.83;;;1.83;;
20844;SDS011;10583;49.084;8.646;2023-06-05T06:38:07;1.60;;;1.60;;
20844;SDS011;10583;49.084;8.646;2023-06-05T06:40:34;1.70;;;1.70;;
20844;SDS011;10583;49.084;8.646;2023-06-05T06:43:01;1.80;;;1.80;;
20844;SDS011;10583;49.084;8.646;2023-06-05T06:45:28;1.80;;;1.80;;
20844;SDS011;10583;49.084;8.646;2023-06-05T06:47:54;1.63;;;1.63;;
20844;SDS011;10583;49.084;8.646;2023-06-05T06:50:23;1.90;;;1.90;;
20844;SDS011;10583;49.084;8.646;2023-06-05T06:52:50;1.80;;;1.80;;
20844;SDS011;10583;49.084;8.646;2023-06-05T06:55:17;1.80;;;1.80;;
20844;SDS011;10583;49.084;8.646;2023-06-05T06:57:43;1.70;;;1.70;;
20844;SDS011;10583;49.084;8.646;2023-06-05T07:00:11;1.85;;;1.85;;
20844;SDS011;10583;49.084;8.646;2023-06-05T07:02:39;1.58;;;1.58;;
20844;SDS011;10583;49.084;8.646;2023-06-05T07:05:06;1.65;;;1.65;;
20844;SDS011;10583;49.084;8.646;2023-06-05T07:07:35;1.90;;;1.90;;
20844;SDS011;10583;49.084;8.646;2023-06-05T07:10:02;1.60;;;1.60;;
20844;SDS011;10583;49.084;8.646;2023-06-05T07:12:29;1.65;;;1.65;;
20844;SDS011;10583;49.084;8.646;2023-06-05T07:14:56;1.80;;;1.80;;
20844;SDS011;10583;49.084;8.646;2023-06-05T07:17:23;1.60;;;1.60;;
20844;SDS011;10583;49.084;8.646;2023-06-05T07:19:52;1.77;;;1.77;;
20844;SDS011;10583;49.084;8.646;2023-06-05T07:22:19;1.63;;;1.63;;
20844;SDS011;10583;49.084;8.646;2023-06-05T07:24:47;1.92;;;1.92;;
20844;SDS011;10583;49.084;8.646;2023-06-05T07:27:14;1.90;;;1.90;;
20844;SDS011;10583;49.084;8.646;2023-06-05T07:29:41;2.00;;;2.00;;
20844;SDS011;10583;49.084;8.646;2023-06-05T07:32:08;2.10;;;2.10;;
20844;SDS011;10583;49.084;8.646;2023-06-05T07:34:35;1.60;;;1.60;;
20844;SDS011;10583;49.084;8.646;2023-06-05T07:37:01;2.25;;;2.25;;
20844;SDS011;10583;49.084;8.646;2023-06-05T07:39:28;1.95;;;1.95;;
20844;SDS011;10583;49.084;8.646;2023-06-05T07:44:10;2.15;;;2.15;;
20844;SDS011;10583;49.084;8.646;2023-06-05T07:46:39;1.77;;;1.77;;
20844;SDS011;10583;49.084;8.646;2023-06-05T07:49:06;2.10;;;2.10;;
20844;SDS011;10583;49.084;8.646;2023-06-05T07:51:34;2.13;;;2.13;;
20844;SDS011;10583;49.084;8.646;2023-06-05T07:54:01;1.70;;;1.70;;
20844;SDS011;10583;49.084;8.646;2023-06-05T07:56:28;1.98;;;1.98;;
20844;SDS011;10583;49.084;8.646;2023-06-05T07:58:56;1.80;;;1.80;;
20844;SDS011;10583;49.084;8.646;2023-06-05T08:01:24;1.80;;;1.80;;
20844;SDS011;10583;49.084;8.646;2023-06-05T08:03:52;1.90;;;1.90;;
20844;SDS011;10583;49.084;8.646;2023-06-05T08:06:19;2.17;;;2.17;;
20844;SDS011;10583;49.084;8.646;2023-06-05T08:08:46;1.95;;;1.95;;
20844;SDS011;10583;49.084;8.646;2023-06-05T08:11:12;2.10;;;2.10;;
20844;SDS011;10583;49.084;8.646;2023-06-05T08:13:39;2.10;;;2.10;;
20844;SDS011;10583;49.084;8.646;2023-06-05T08:16:06;2.10;;;2.10;;
20844;SDS011;10583;49.084;8.646;2023-06-05T08:18:34;1.90;;;1.90;;
20844;SDS011;10583;49.084;8.646;2023-06-05T08:21:00;2.13;;;2.13;;
20844;SDS011;10583;49.084;8.646;2023-06-05T08:23:28;1.90;;;1.90;;
20844;SDS011;10583;49.084;8.646;2023-06-05T08:25:54;2.13;;;2.13;;
20844;SDS011;10583;49.084;8.646;2023-06-05T08:28:21;2.30;;;2.30;;
20844;SDS011;10583;49.084;8.646;2023-06-05T08:30:47;2.30;;;2.30;;
20844;SDS011;10583;49.084;8.646;2023-06-05T08:33:17;2.03;;;2.03;;
20844;SDS011;10583;49.084;8.646;2023-06-05T08:35:45;2.10;;;2.10;;
20844;SDS011;10583;49.084;8.646;2023-06-05T08:38:11;2.10;;;2.10;;
20844;SDS011;10583;49.084;8.646;2023-06-05T08:40:38;2.40;;;2.40;;
20844;SDS011;10583;49.084;8.646;2023-06-05T08:43:05;2.28;;;2.28;;
20844;SDS011;10583;49.084;8.646;2023-06-05T08:45:32;2.40;;;2.40;;
20844;SDS011;10583;49.084;8.646;2023-06-05T08:47:59;2.25;;;2.25;;
20844;SDS011;10583;49.084;8.646;2023-06-05T08:50:27;2.33;;;2.33;;
20844;SDS011;10583;49.084;8.646;2023-06-05T08:52:56;2.80;;;2.80;;
20844;SDS011;10583;49.084;8.646;2023-06-05T08:55:24;2.22;;;2.22;;
20844;SDS011;10583;49.084;8.646;2023-06-05T08:57:51;2.33;;;2.33;;
20844;SDS011;10583;49.084;8.646;2023-06-05T09:00:18;2.15;;;2.15;;
20844;SDS011;10583;49.084;8.646;2023-06-05T09:02:45;2.55;;;2.55;;
20844;SDS011;10583;49.084;8.646;2023-06-05T09:05:12;2.10;;;2.10;;
20844;SDS011;10583;49.084;8.646;2023-06-05T09:07:39;2.53;;;2.53;;
20844;SDS011;10583;49.084;8.646;2023-06-05T09:10:17;2.35;;;2.35;;
20844;SDS011;10583;49.084;8.646;2023-06-05T09:12:54;2.58;;;2.58;;
20844;SDS011;10583;49.084;8.646;2023-06-05T09:15:23;2.83;;;2.83;;
20844;SDS011;10583;49.084;8.646;2023-06-05T09:18:03;2.45;;;2.45;;
20844;SDS011;10583;49.084;8.646;2023-06-05T09:20:33;3.20;;;3.20;;
20844;SDS011;10583;49.084;8.646;2023-06-05T09:23:01;2.97;;;2.97;;
20844;SDS011;10583;49.084;8.646;2023-06-05T09:25:38;2.95;;;2.95;;
20844;SDS011;10583;49.084;8.646;2023-06-05T09:28:13;2.75;;;2.75;;
20844;SDS011;10583;49.084;8.646;2023-06-05T09:30:52;2.70;;;2.70;;
20844;SDS011;10583;49.084;8.646;2023-06-05T09:33:20;2.65;;;2.65;;
20844;SDS011;10583;49.084;8.646;2023-06-05T09:35:48;2.80;;;2.80;;
20844;SDS011;10583;49.084;8.646;2023-06-05T09:38:28;3.28;;;3.28;;
20844;SDS011;10583;49.084;8.646;2023-06-05T09:41:01;3.10;;;3.10;;
20844;SDS011;10583;49.084;8.646;2023-06-05T09:43:31;2.85;;;2.85;;
20844;SDS011;10583;49.084;8.646;2023-06-05T09:45:59;3.08;;;3.08;;
20844;SDS011;10583;49.084;8.646;2023-06-05T09:48:31;3.03;;;3.03;;
20844;SDS011;10583;49.084;8.646;2023-06-05T09:51:03;3.00;;;3.00;;
20844;SDS011;10583;49.084;8.646;2023-06-05T09:53:34;2.63;;;2.63;;
20844;SDS011;10583;49.084;8.646;2023-06-05T09:56:06;3.33;;;3.33;;
20844;SDS011;10583;49.084;8.646;2023-06-05T09:58:37;3.20;;;3.20;;
20844;SDS011;10583;49.084;8.646;2023-06-05T10:01:04;3.33;;;3.33;;
20844;SDS011;10583;49.084;8.646;2023-06-05T10:03:34;3.15;;;3.15;;
20844;SDS011;10583;49.084;8.646;2023-06-05T10:06:05;2.63;;;2.63;;
20844;SDS011;10583;49.084;8.646;2023-06-05T10:08:33;3.00;;;3.00;;
20844;SDS011;10583;49.084;8.646;2023-06-05T10:11:00;3.30;;;3.30;;
20844;SDS011;10583;49.084;8.646;2023-06-05T10:13:28;3.60;;;3.60;;
20844;SDS011;10583;49.084;8.646;2023-06-05T10:15:56;3.20;;;3.20;;
20844;SDS011;10583;49.084;8.646;2023-06-05T10:18:23;3.22;;;3.22;;
20844;SDS011;10583;49.084;8.646;2023-06-05T10:20:50;3.53;;;3.53;;
20844;SDS011;10583;49.084;8.646;2023-06-05T10:23:18;3.97;;;3.97;;
20844;SDS011;10583;49.084;8.646;2023-06-05T10:25:46;3.60;;;3.60;;
20844;SDS011;10583;49.084;8.646;2023-06-05T10:28:27;3.70;;;3.70;;
20844;SDS011;10583;49.084;8.646;2023-06-05T10:31:13;4.20;;;4.20;;
20844;SDS011;10583;49.084;8.646;2023-06-05T10:33:57;3.33;;;3.33;;
20844;SDS011;10583;49.084;8.646;2023-06-05T10:39:29;3.50;;;3.50;;
20844;SDS011;10583;49.084;8.646;2023-06-05T10:41:58;3.88;;;3.88;;
20844;SDS011;10583;49.084;8.646;2023-06-05T10:44:42;3.65;;;3.65;;
20844;SDS011;10583;49.084;8.646;2023-06-05T10:50:19;3.25;;;3.25;;
20844;SDS011;10583;49.084;8.646;2023-06-05T10:52:50;3.20;;;3.20;;
20844;SDS011;10583;49.084;8.646;2023-06-05T10:55:17;3.25;;;3.25;;
20844;SDS011;10583;49.084;8.646;2023-06-05T11:00:35;2.85;;;2.85;;
20844;SDS011;10583;49.084;8.646;2023-06-05T11:03:02;3.22;;;3.22;;
20844;SDS011;10583;49.084;8.646;2023-06-05T11:05:30;2.80;;;2.80;;
20844;SDS011;10583;49.084;8.646;2023-06-05T11:08:10;2.70;;;2.70;;
20844;SDS011;10583;49.084;8.646;2023-06-05T11:16:27;2.45;;;2.45;;
20844;SDS011;10583;49.084;8.646;2023-06-05T11:22:02;2.67;;;2.67;;
20844;SDS011;10583;49.084;8.646;2023-06-05T11:24:29;2.50;;;2.50;;
20844;SDS011;10583;49.084;8.646;2023-06-05T11:26:57;2.63;;;2.63;;
20844;SDS011;10583;49.084;8.646;2023-06-05T11:29:24;2.78;;;2.78;;
20844;SDS011;10583;49.084;8.646;2023-06-05T11:31:53;2.55;;;2.55;;
20844;SDS011;10583;49.084;8.646;2023-06-05T11:34:20;3.20;;;3.20;;
20844;SDS011;10583;49.084;8.646;2023-06-05T11:36:48;2.50;;;2.50;;
20844;SDS011;10583;49.084;8.646;2023-06-05T11:39:15;2.75;;;2.75;;
20844;SDS011;10583;49.084;8.646;2023-06-05T11:41:45;3.17;;;3.17;;
20844;SDS011;10583;49.084;8.646;2023-06-05T11:44:12;3.15;;;3.15;;
20844;SDS011;10583;49.084;8.646;2023-06-05T11:46:40;2.55;;;2.55;;
20844;SDS011;10583;49.084;8.646;2023-06-05T11:49:21;2.38;;;2.38;;
20844;SDS011;10583;49.084;8.646;2023-06-05T11:51:50;2.90;;;2.90;;
20844;SDS011;10583;49.084;8.646;2023-06-05T11:54:23;2.45;;;2.45;;
20844;SDS011;10583;49.084;8.646;2023-06-05T11:56:55;2.90;;;2.90;;
20844;SDS011;10583;49.084;8.646;2023-06-05T11:59:29;2.70;;;2.70;;
20844;SDS011;10583;49.084;8.646;2023-06-05T12:01:56;2.88;;;2.88;;
20844;SDS011;10583;49.084;8.646;2023-06-05T12:04:24;2.67;;;2.67;;
20844;SDS011;10583;49.084;8.646;2023-06-05T12:06:51;2.45;;;2.45;;
20844;SDS011;10583;49.084;8.646;2023-06-05T12:09:18;2.83;;;2.83;;
20844;SDS011;10583;49.084;8.646;2023-06-05T12:11:46;2.67;;;2.67;;
20844;SDS011;10583;49.084;8.646;2023-06-05T12:14:13;2.70;;;2.70;;
20844;SDS011;10583;49.084;8.646;2023-06-05T12:16:54;2.97;;;2.97;;
20844;SDS011;10583;49.084;8.646;2023-06-05T12:19:21;2.85;;;2.85;;
20844;SDS011;10583;49.084;8.646;2023-06-05T12:21:49;2.75;;;2.75;;
20844;SDS011;10583;49.084;8.646;2023-06-05T12:24:25;2.88;;;2.88;;
20844;SDS011;10583;49.084;8.646;2023-06-05T12:26:52;2.85;;;2.85;;
20844;SDS011;10583;49.084;8.646;2023-06-05T12:29:20;3.10;;;3.10;;
20844;SDS011;10583;49.084;8.646;2023-06-05T12:31:47;2.55;;;2.55;;
20844;SDS011;10583;49.084;8.646;2023-06-05T12:34:14;3.00;;;3.00;;
20844;SDS011;10583;49.084;8.646;2023-06-05T12:36:42;3.40;;;3.40;;
20844;SDS011;10583;49.084;8.646;2023-06-05T12:39:10;2.85;;;2.85;;
20844;SDS011;10583;49.084;8.646;2023-06-05T12:41:38;3.45;;;3.45;;
20844;SDS011;10583;49.084;8.646;2023-06-05T12:44:05;2.83;;;2.83;;
20844;SDS011;10583;49.084;8.646;2023-06-05T12:46:33;2.17;;;2.17;;
20844;SDS011;10583;49.084;8.646;2023-06-05T12:49:00;2.72;;;2.72;;
20844;SDS011;10583;49.084;8.646;2023-06-05T12:51:27;2.58;;;2.58;;
20844;SDS011;10583;49.084;8.646;2023-06-05T12:53:55;2.60;;;2.60;;
20844;SDS011;10583;49.084;8.646;2023-06-05T12:56:23;2.45;;;2.45;;
20844;SDS011;10583;49.084;8.646;2023-06-05T12:58:52;2.40;;;2.40;;
20844;SDS011;10583;49.084;8.646;2023-06-05T13:01:20;2.40;;;2.40;;
20844;SDS011;10583;49.084;8.646;2023-06-05T13:03:47;2.38;;;2.38;;
20844;SDS011;10583;49.084;8.646;2023-06-05T13:06:13;2.30;;;2.30;;
20844;SDS011;10583;49.084;8.646;2023-06-05T13:08:40;2.90;;;2.90;;
20844;SDS011;10583;49.084;8.646;2023-06-05T13:11:07;2.40;;;2.40;;
20844;SDS011;10583;49.084;8.646;2023-06-05T13:13:35;2.30;;;2.30;;
20844;SDS011;10583;49.084;8.646;2023-06-05T13:16:02;2.63;;;2.63;;
20844;SDS011;10583;49.084;8.646;2023-06-05T13:18:30;2.63;;;2.63;;
20844;SDS011;10583;49.084;8.646;2023-06-05T13:20:58;2.55;;;2.55;;
20844;SDS011;10583;49.084;8.646;2023-06-05T13:23:24;2.50;;;2.50;;
20844;SDS011;10583;49.084;8.646;2023-06-05T13:25:52;2.60;;;2.60;;
20844;SDS011;10583;49.084;8.646;2023-06-05T13:28:19;2.33;;;2.33;;
20844;SDS011;10583;49.084;8.646;2023-06-05T13:30:47;2.70;;;2.70;;
20844;SDS011;10583;49.084;8.646;2023-06-05T13:33:13;2.72;;;2.72;;
20844;SDS011;10583;49.084;8.646;2023-06-05T13:35:40;2.72;;;2.72;;
20844;SDS011;10583;49.084;8.646;2023-06-05T13:38:07;2.40;;;2.40;;
20844;SDS011;10583;49.084;8.646;2023-06-05T13:40:33;2.22;;;2.22;;
20844;SDS011;10583;49.084;8.646;2023-06-05T13:43:00;2.50;;;2.50;;
20844;SDS011;10583;49.084;8.646;2023-06-05T13:45:27;2.55;;;2.55;;
20844;SDS011;10583;49.084;8.646;2023-06-05T13:47:55;2.30;;;2.30;;
20844;SDS011;10583;49.084;8.646;2023-06-05T13:50:21;1.92;;;1.92;;
20844;SDS011;10583;49.084;8.646;2023-06-05T13:52:48;2.38;;;2.38;;
20844;SDS011;10583;49.084;8.646;2023-06-05T13:55:15;2.40;;;2.40;;
20844;SDS011;10583;49.084;8.646;2023-06-05T13:57:41;2.20;;;2.20;;
20844;SDS011;10583;49.084;8.646;2023-06-05T14:00:08;2.40;;;2.40;;
20844;SDS011;10583;49.084;8.646;2023-06-05T14:02:36;2.45;;;2.45;;
20844;SDS011;10583;49.084;8.646;2023-06-05T14:05:04;2.38;;;2.38;;
20844;SDS011;10583;49.084;8.646;2023-06-05T14:07:32;2.55;;;2.55;;
20844;SDS011;10583;49.084;8.646;2023-06-05T14:09:59;2.85;;;2.85;;
20844;SDS011;10583;49.084;8.646;2023-06-05T14:12:26;2.47;;;2.47;;
20844;SDS011;10583;49.084;8.646;2023-06-05T14:14:53;2.08;;;2.08;;
20844;SDS011;10583;49.084;8.646;2023-06-05T14:17:20;2.15;;;2.15;;
20844;SDS011;10583;49.084;8.646;2023-06-05T14:19:46;2.20;;;2.20;;
20844;SDS011;10583;49.084;8.646;2023-06-05T14:22:14;2.22;;;2.22;;
20844;SDS011;10583;49.084;8.646;2023-06-05T14:24:41;2.03;;;2.03;;
20844;SDS011;10583;49.084;8.646;2023-06-05T14:27:07;2.10;;;2.10;;
20844;SDS011;10583;49.084;8.646;2023-06-05T14:29:37;2.28;;;2.28;;
20844;SDS011;10583;49.084;8.646;2023-06-05T14:32:04;1.90;;;1.90;;
20844;SDS011;10583;49.084;8.646;2023-06-05T14:34:31;2.13;;;2.13;;
20844;SDS011;10583;49.084;8.646;2023-06-05T14:36:58;1.85;;;1.85;;
20844;SDS011;10583;49.084;8.646;2023-06-05T14:39:26;2.20;;;2.20;;
20844;SDS011;10583;49.084;8.646;2023-06-05T14:41:53;2.50;;;2.50;;
20844;SDS011;10583;49.084;8.646;2023-06-05T14:44:20;2.40;;;2.40;;
20844;SDS011;10583;49.084;8.646;2023-06-05T14:46:46;2.03;;;2.03;;
20844;SDS011;10583;49.084;8.646;2023-06-05T14:49:13;2.28;;;2.28;;
20844;SDS011;10583;49.084;8.646;2023-06-05T14:51:40;2.10;;;2.10;;
20844;SDS011;10583;49.084;8.646;2023-06-05T14:54:06;1.88;;;1.88;;
20844;SDS011;10583;49.084;8.646;2023-06-05T14:56:34;2.30;;;2.30;;
20844;SDS011;10583;49.084;8.646;2023-06-05T14:59:01;2.50;;;2.50;;
20844;SDS011;10583;49.084;8.646;2023-06-05T15:01:28;2.78;;;2.78;;
20844;SDS011;10583;49.084;8.646;2023-06-05T15:03:54;2.20;;;2.20;;
20844;SDS011;10583;49.084;8.646;2023-06-05T15:06:21;2.13;;;2.13;;
20844;SDS011;10583;49.084;8.646;2023-06-05T15:08:47;2.22;;;2.22;;
20844;SDS011;10583;49.084;8.646;2023-06-05T15:11:14;2.13;;;2.13;;
20844;SDS011;10583;49.084;8.646;2023-06-05T15:13:43;2.25;;;2.25;;